Richlands, VA

1:47 PM EDT on September 19, 2017 (GMT -0400)
Tazewell County

Weather History for KJFZ - February, 2013

Change the Weather History Date:

Thursday, February 28, 2013

  Actual Average (KBLF) Record (KBLF)
Temperature  
Mean Temperature 28 °F -  
Max Temperature 30 °F 46 °F 67 °F (2012)
Min Temperature 26 °F 30 °F 9 °F (2015)
Degree Days  
Heating Degree Days 37    
Moisture  
Dew Point 27 °F    
Average Humidity 97    
Maximum Humidity 100    
Minimum Humidity 80    
Precipitation  
Precipitation 0.00 in - - ()
Sea Level Pressure  
Sea Level Pressure 29.74 in    
Wind  
Wind Speed 9 mph (West)    
Max Wind Speed 15 mph    
Max Gust Speed -    
Visibility 8 miles    
Events      
Averages and records for this station are not official NWS values.
T = Trace of Precipitation, MM = Missing Value Source: NWS Daily Summary

Daily Weather History Graph

Daily Weather History Graph

Search for Another Location

Airport or City:

Trip Planner

Search our weather history database for the weather conditions in past years. The results will help you decide how hot, cold, wet, or windy it might be!

Date:

Astronomy

Feb. 28, 2013 Rise Set
Actual Time 6:59 AM EST 6:20 PM EST
Civil Twilight 6:33 AM EST 6:46 PM EST
Nautical Twilight 6:03 AM EST 7:16 PM EST
Astronomical Twilight 5:32 AM EST 7:47 PM EST
Moon 9:39 PM EST (2/28) 8:13 AM EST (2/28)
Length of Visible Light 12h 13m
Length of Day
11h 21m
Waning Gibbous, 91% of the Moon is Illuminated
Feb 28
Waning Gibbous
Mar 4
Last Quarter
Mar 11
New
Mar 19
First Quarter
Mar 27
Full

Hourly Weather History & Observations

Time (EST) Temp. Windchill Dew Point Humidity Pressure Visibility Wind Dir Wind Speed Gust Speed Precip Events Conditions
12:15 AM 30.2 °F 23.4 °F 30.2 °F 100% 29.70 in 1.2 mi West 6.9 mph - N/A   Mostly Cloudy
12:35 AM 28.4 °F 17.0 °F 28.4 °F 100% 29.69 in 1.8 mi West 15.0 mph - N/A   Mostly Cloudy
12:55 AM 28.4 °F 18.5 °F 28.4 °F 100% 29.68 in 4.0 mi West 11.5 mph - N/A   Clear
1:15 AM 28.4 °F 19.1 °F 28.4 °F 100% 29.69 in 8.0 mi West 10.4 mph - N/A   Clear
1:35 AM 28.4 °F 20.4 °F 28.4 °F 100% 29.70 in 10.0 mi WNW 8.1 mph - N/A   Unknown
2:15 AM 28.4 °F 22.2 °F 28.4 °F 100% 29.69 in 10.0 mi West 5.8 mph - N/A   Scattered Clouds
2:35 AM 28.4 °F 21.2 °F 28.4 °F 100% 29.68 in 10.0 mi West 6.9 mph - N/A   Unknown
2:55 AM 28.4 °F 23.3 °F 28.4 °F 100% 29.68 in 10.0 mi West 4.6 mph - N/A   Unknown
3:15 AM 28.4 °F 23.3 °F 28.4 °F 100% 29.67 in 10.0 mi West 4.6 mph - N/A   Unknown
3:35 AM 28.4 °F 23.3 °F 28.4 °F 100% 29.67 in 6.0 mi WNW 4.6 mph - N/A   Unknown
3:55 AM 28.4 °F 20.4 °F 28.4 °F 100% 29.66 in 2.5 mi WNW 8.1 mph - N/A   Unknown
4:15 AM 28.4 °F 18.5 °F 28.4 °F 100% 29.65 in 5.0 mi West 11.5 mph - N/A   Unknown
4:35 AM 28.4 °F 20.4 °F 28.4 °F 100% 29.66 in 10.0 mi West 8.1 mph - N/A   Unknown
4:55 AM 28.4 °F 18.0 °F 28.4 °F 100% 29.67 in 9.0 mi WNW 12.7 mph - N/A   Unknown
5:15 AM 28.4 °F 17.5 °F 28.4 °F 100% 29.67 in 10.0 mi West 13.8 mph - N/A   Unknown
5:35 AM 28.4 °F 20.4 °F 28.4 °F 100% 29.67 in 8.0 mi West 8.1 mph - N/A   Unknown
5:55 AM 28.4 °F 18.5 °F 28.4 °F 100% 29.67 in 8.0 mi West 11.5 mph - N/A   Unknown
6:15 AM 28.4 °F 18.5 °F 28.4 °F 100% 29.67 in 9.0 mi West 11.5 mph - N/A   Unknown
6:35 AM 28.4 °F 18.0 °F 28.4 °F 100% 29.68 in 9.0 mi West 12.7 mph - N/A   Unknown
6:55 AM 28.4 °F 20.4 °F 26.6 °F 93% 29.68 in 8.0 mi West 8.1 mph - N/A   Unknown
7:15 AM 26.6 °F 18.2 °F 26.6 °F 100% 29.69 in 10.0 mi West 8.1 mph - N/A   Partly Cloudy
7:35 AM 26.6 °F 17.5 °F 26.6 °F 100% 29.69 in 10.0 mi West 9.2 mph - N/A   Partly Cloudy
7:55 AM 26.6 °F 15.7 °F 26.6 °F 100% 29.70 in 9.0 mi West 12.7 mph - N/A   Unknown
8:15 AM 26.6 °F 16.8 °F 26.6 °F 100% 29.70 in 3.0 mi West 10.4 mph - N/A   Unknown
8:35 AM 26.6 °F 19.1 °F 26.6 °F 100% 29.71 in 4.0 mi West 6.9 mph - N/A   Clear
9:15 AM 26.6 °F 19.1 °F 26.6 °F 100% 29.72 in 5.0 mi West 6.9 mph - N/A   Unknown
9:35 AM 26.6 °F 16.8 °F 26.6 °F 100% 29.72 in 3.0 mi West 10.4 mph - N/A   Unknown
9:55 AM 26.6 °F 15.7 °F 26.6 °F 100% 29.72 in 6.0 mi WNW 12.7 mph - N/A   Unknown
10:15 AM 26.6 °F 17.5 °F 26.6 °F 100% 29.73 in 6.0 mi West 9.2 mph - N/A   Unknown
10:35 AM 26.6 °F 18.2 °F 26.6 °F 100% 29.73 in 9.0 mi WNW 8.1 mph - N/A   Unknown
10:55 AM 26.6 °F 16.8 °F 26.6 °F 100% 29.73 in 7.0 mi West 10.4 mph - N/A   Unknown
11:15 AM 26.6 °F 16.8 °F 26.6 °F 100% 29.74 in 8.0 mi West 10.4 mph - N/A   Unknown
11:35 AM 26.6 °F 15.7 °F 24.8 °F 93% 29.75 in 7.0 mi West 12.7 mph - N/A   Unknown
11:55 AM 28.4 °F 18.0 °F 24.8 °F 86% 29.74 in 10.0 mi WSW 12.7 mph - N/A   Partly Cloudy
12:15 PM 30.2 °F 23.4 °F 24.8 °F 80% 29.74 in 10.0 mi West 6.9 mph - N/A   Scattered Clouds
12:35 PM 28.4 °F 20.4 °F 24.8 °F 86% 29.75 in 10.0 mi West 8.1 mph - N/A   Mostly Cloudy
12:55 PM 28.4 °F 18.0 °F 24.8 °F 86% 29.74 in 10.0 mi West 12.7 mph - N/A   Mostly Cloudy
1:15 PM 28.4 °F 19.7 °F 24.8 °F 86% 29.74 in 10.0 mi West 9.2 mph - N/A   Mostly Cloudy
1:55 PM 30.2 °F 21.3 °F 26.6 °F 86% 29.74 in 10.0 mi WNW 10.4 mph - N/A   Mostly Cloudy
2:15 PM 30.2 °F 20.8 °F 26.6 °F 86% 29.74 in 10.0 mi West 11.5 mph - N/A   Mostly Cloudy
2:35 PM 30.2 °F 20.2 °F 26.6 °F 86% 29.74 in 10.0 mi WNW 12.7 mph - N/A   Overcast
2:55 PM 28.4 °F 19.1 °F 26.6 °F 93% 29.75 in 10.0 mi West 10.4 mph - N/A   Mostly Cloudy
3:15 PM 28.4 °F 19.7 °F 26.6 °F 93% 29.76 in 10.0 mi West 9.2 mph - N/A   Mostly Cloudy
3:35 PM 28.4 °F 22.2 °F 28.4 °F 100% 29.76 in 10.0 mi Variable 5.8 mph - N/A   Partly Cloudy
4:15 PM 28.4 °F 21.2 °F 26.6 °F 93% 29.76 in 10.0 mi West 6.9 mph - N/A   Unknown
4:35 PM 28.4 °F 17.5 °F 26.6 °F 93% 29.77 in 10.0 mi West 13.8 mph - N/A   Unknown
4:55 PM 28.4 °F 21.2 °F 26.6 °F 93% 29.78 in 10.0 mi Variable 6.9 mph - N/A   Unknown
5:15 PM 28.4 °F 19.1 °F 28.4 °F 100% 29.78 in 10.0 mi West 10.4 mph - N/A   Unknown
5:35 PM 28.4 °F 18.5 °F 28.4 °F 100% 29.79 in 10.0 mi West 11.5 mph - N/A   Unknown
5:55 PM 28.4 °F 20.4 °F 26.6 °F 93% 29.81 in 10.0 mi West 8.1 mph - N/A   Unknown
6:15 PM 28.4 °F 19.7 °F 26.6 °F 93% 29.82 in 10.0 mi West 9.2 mph - N/A   Unknown
6:35 PM 28.4 °F 19.7 °F 26.6 °F 93% 29.82 in 10.0 mi West 9.2 mph - N/A   Unknown
6:55 PM 28.4 °F 20.4 °F 26.6 °F 93% 29.82 in 9.0 mi WNW 8.1 mph - N/A   Unknown
7:15 PM 26.6 °F 17.5 °F 26.6 °F 100% 29.83 in 7.0 mi West 9.2 mph - N/A   Unknown
7:35 PM 26.6 °F 18.2 °F 26.6 °F 100% 29.82 in 8.0 mi West 8.1 mph - N/A   Unknown
7:55 PM 26.6 °F 19.1 °F 26.6 °F 100% 29.83 in 7.0 mi West 6.9 mph - N/A   Unknown
8:15 PM 26.6 °F 15.7 °F 26.6 °F 100% 29.84 in 6.0 mi West 12.7 mph - N/A   Unknown
8:35 PM 26.6 °F 18.2 °F 26.6 °F 100% 29.84 in 5.0 mi WNW 8.1 mph - N/A   Clear
8:55 PM 26.6 °F 16.8 °F 26.6 °F 100% 29.83 in 5.0 mi West 10.4 mph - N/A   Clear
9:15 PM 26.6 °F 16.2 °F 26.6 °F 100% 29.84 in 4.0 mi West 11.5 mph - N/A   Clear
9:55 PM 26.6 °F 16.8 °F 26.6 °F 100% 29.83 in 4.0 mi WNW 10.4 mph - N/A   Clear
10:15 PM 26.6 °F 17.5 °F 26.6 °F 100% 29.84 in 3.0 mi West 9.2 mph - N/A   Unknown
10:35 PM 26.6 °F 15.7 °F 26.6 °F 100% 29.84 in 3.0 mi West 12.7 mph - N/A   Unknown
10:55 PM 26.6 °F 19.1 °F 26.6 °F 100% 29.85 in 3.0 mi West 6.9 mph - N/A   Clear
11:55 PM 26.6 °F 17.5 °F 26.6 °F 100% 29.84 in 2.5 mi WNW 9.2 mph - N/A   Clear